sensor_id;sensor_type;location;lat;lon;timestamp;P1;durP1;ratioP1;P2;durP2;ratioP2
76115;SDS011;64847;45.778;12.802;2023-02-28T00:01:31;2.83;;;2.70;;
76115;SDS011;64847;45.778;12.802;2023-02-28T00:03:57;2.90;;;2.70;;
76115;SDS011;64847;45.778;12.802;2023-02-28T00:06:23;2.90;;;2.70;;
76115;SDS011;64847;45.778;12.802;2023-02-28T00:08:49;2.70;;;2.50;;
76115;SDS011;64847;45.778;12.802;2023-02-28T00:11:15;3.03;;;2.73;;
76115;SDS011;64847;45.778;12.802;2023-02-28T00:13:41;2.80;;;2.60;;
76115;SDS011;64847;45.778;12.802;2023-02-28T00:16:12;2.70;;;2.50;;
76115;SDS011;64847;45.778;12.802;2023-02-28T00:18:39;2.50;;;2.30;;
76115;SDS011;64847;45.778;12.802;2023-02-28T00:21:05;2.70;;;2.50;;
76115;SDS011;64847;45.778;12.802;2023-02-28T00:23:31;3.00;;;2.70;;
76115;SDS011;64847;45.778;12.802;2023-02-28T00:25:57;2.87;;;2.67;;
76115;SDS011;64847;45.778;12.802;2023-02-28T00:28:22;2.70;;;2.50;;
76115;SDS011;64847;45.778;12.802;2023-02-28T00:30:48;3.20;;;2.93;;
76115;SDS011;64847;45.778;12.802;2023-02-28T00:33:13;2.73;;;2.53;;
76115;SDS011;64847;45.778;12.802;2023-02-28T00:35:39;2.90;;;2.70;;
76115;SDS011;64847;45.778;12.802;2023-02-28T00:38:04;2.80;;;2.60;;
76115;SDS011;64847;45.778;12.802;2023-02-28T00:40:30;3.27;;;3.07;;
76115;SDS011;64847;45.778;12.802;2023-02-28T00:42:56;2.60;;;2.50;;
76115;SDS011;64847;45.778;12.802;2023-02-28T00:45:21;2.90;;;2.70;;
76115;SDS011;64847;45.778;12.802;2023-02-28T00:47:46;2.67;;;2.47;;
76115;SDS011;64847;45.778;12.802;2023-02-28T00:50:14;2.93;;;2.73;;
76115;SDS011;64847;45.778;12.802;2023-02-28T00:52:41;3.00;;;2.80;;
76115;SDS011;64847;45.778;12.802;2023-02-28T00:55:07;2.90;;;2.70;;
76115;SDS011;64847;45.778;12.802;2023-02-28T00:57:32;3.07;;;2.77;;
76115;SDS011;64847;45.778;12.802;2023-02-28T00:59:58;3.03;;;2.73;;
76115;SDS011;64847;45.778;12.802;2023-02-28T01:02:23;3.20;;;2.90;;
76115;SDS011;64847;45.778;12.802;2023-02-28T01:04:48;2.90;;;2.70;;
76115;SDS011;64847;45.778;12.802;2023-02-28T01:07:14;2.90;;;2.70;;
76115;SDS011;64847;45.778;12.802;2023-02-28T01:09:40;3.20;;;2.90;;
76115;SDS011;64847;45.778;12.802;2023-02-28T01:12:06;3.10;;;2.90;;
76115;SDS011;64847;45.778;12.802;2023-02-28T01:14:32;2.83;;;2.63;;
76115;SDS011;64847;45.778;12.802;2023-02-28T01:16:58;3.40;;;3.10;;
76115;SDS011;64847;45.778;12.802;2023-02-28T01:19:23;3.40;;;3.10;;
76115;SDS011;64847;45.778;12.802;2023-02-28T01:21:49;3.50;;;3.20;;
76115;SDS011;64847;45.778;12.802;2023-02-28T01:24:14;3.27;;;3.07;;
76115;SDS011;64847;45.778;12.802;2023-02-28T01:26:39;3.53;;;3.23;;
76115;SDS011;64847;45.778;12.802;2023-02-28T01:29:05;3.37;;;3.10;;
76115;SDS011;64847;45.778;12.802;2023-02-28T01:31:30;3.20;;;3.00;;
76115;SDS011;64847;45.778;12.802;2023-02-28T01:33:55;3.37;;;3.07;;
76115;SDS011;64847;45.778;12.802;2023-02-28T01:36:22;2.97;;;2.77;;
76115;SDS011;64847;45.778;12.802;2023-02-28T01:38:48;3.30;;;3.00;;
76115;SDS011;64847;45.778;12.802;2023-02-28T01:41:21;3.93;;;3.50;;
76115;SDS011;64847;45.778;12.802;2023-02-28T01:46:51;2.90;;;2.70;;
76115;SDS011;64847;45.778;12.802;2023-02-28T01:49:16;3.50;;;3.20;;
76115;SDS011;64847;45.778;12.802;2023-02-28T01:51:49;3.30;;;3.10;;
76115;SDS011;64847;45.778;12.802;2023-02-28T01:54:17;3.30;;;3.10;;
76115;SDS011;64847;45.778;12.802;2023-02-28T01:56:52;3.27;;;2.97;;
76115;SDS011;64847;45.778;12.802;2023-02-28T01:59:38;3.50;;;3.20;;
76115;SDS011;64847;45.778;12.802;2023-02-28T02:02:16;3.47;;;3.17;;
76115;SDS011;64847;45.778;12.802;2023-02-28T02:04:50;4.43;;;3.97;;
76115;SDS011;64847;45.778;12.802;2023-02-28T02:07:18;3.53;;;3.33;;
76115;SDS011;64847;45.778;12.802;2023-02-28T02:09:44;3.03;;;2.80;;
76115;SDS011;64847;45.778;12.802;2023-02-28T02:12:23;3.00;;;2.80;;
76115;SDS011;64847;45.778;12.802;2023-02-28T02:15:06;3.07;;;2.87;;
76115;SDS011;64847;45.778;12.802;2023-02-28T02:17:44;3.20;;;3.00;;
76115;SDS011;64847;45.778;12.802;2023-02-28T02:20:16;3.50;;;3.20;;
76115;SDS011;64847;45.778;12.802;2023-02-28T02:31:14;3.20;;;3.00;;
76115;SDS011;64847;45.778;12.802;2023-02-28T02:45:09;3.50;;;3.20;;
76115;SDS011;64847;45.778;12.802;2023-02-28T02:47:44;3.30;;;3.00;;
76115;SDS011;64847;45.778;12.802;2023-02-28T02:50:18;3.50;;;3.30;;
76115;SDS011;64847;45.778;12.802;2023-02-28T02:52:48;3.70;;;3.33;;
76115;SDS011;64847;45.778;12.802;2023-02-28T02:55:16;3.40;;;3.20;;
76115;SDS011;64847;45.778;12.802;2023-02-28T02:57:47;3.60;;;3.30;;
76115;SDS011;64847;45.778;12.802;2023-02-28T03:00:15;3.33;;;3.03;;
76115;SDS011;64847;45.778;12.802;2023-02-28T03:02:43;3.40;;;3.10;;
76115;SDS011;64847;45.778;12.802;2023-02-28T03:05:26;3.80;;;3.33;;
76115;SDS011;64847;45.778;12.802;2023-02-28T03:07:53;4.70;;;3.03;;
76115;SDS011;64847;45.778;12.802;2023-02-28T03:10:26;4.57;;;2.90;;
76115;SDS011;64847;45.778;12.802;2023-02-28T03:12:55;3.37;;;3.07;;
76115;SDS011;64847;45.778;12.802;2023-02-28T03:15:29;4.43;;;3.20;;
76115;SDS011;64847;45.778;12.802;2023-02-28T03:18:03;3.57;;;3.30;;
76115;SDS011;64847;45.778;12.802;2023-02-28T03:23:19;3.43;;;3.13;;
76115;SDS011;64847;45.778;12.802;2023-02-28T03:25:54;3.17;;;2.97;;
76115;SDS011;64847;45.778;12.802;2023-02-28T03:28:32;3.50;;;3.20;;
76115;SDS011;64847;45.778;12.802;2023-02-28T03:31:26;3.43;;;3.13;;
76115;SDS011;64847;45.778;12.802;2023-02-28T03:34:07;3.53;;;3.23;;
76115;SDS011;64847;45.778;12.802;2023-02-28T03:36:46;3.47;;;3.17;;
76115;SDS011;64847;45.778;12.802;2023-02-28T03:39:46;3.70;;;3.40;;
76115;SDS011;64847;45.778;12.802;2023-02-28T03:42:10;3.53;;;3.27;;
76115;SDS011;64847;45.778;12.802;2023-02-28T03:44:39;3.77;;;3.47;;
76115;SDS011;64847;45.778;12.802;2023-02-28T03:47:12;4.03;;;3.57;;
76115;SDS011;64847;45.778;12.802;2023-02-28T03:52:19;3.63;;;3.33;;
76115;SDS011;64847;45.778;12.802;2023-02-28T03:54:50;3.80;;;3.50;;
76115;SDS011;64847;45.778;12.802;2023-02-28T03:57:22;4.17;;;3.87;;
76115;SDS011;64847;45.778;12.802;2023-02-28T04:00:05;4.00;;;3.67;;
76115;SDS011;64847;45.778;12.802;2023-02-28T04:02:32;3.57;;;3.27;;
76115;SDS011;64847;45.778;12.802;2023-02-28T04:04:59;3.70;;;3.40;;
76115;SDS011;64847;45.778;12.802;2023-02-28T04:07:28;4.43;;;3.90;;
76115;SDS011;64847;45.778;12.802;2023-02-28T04:09:54;3.80;;;3.50;;
76115;SDS011;64847;45.778;12.802;2023-02-28T04:12:19;4.00;;;3.70;;
76115;SDS011;64847;45.778;12.802;2023-02-28T04:14:46;4.23;;;3.83;;
76115;SDS011;64847;45.778;12.802;2023-02-28T04:17:11;4.00;;;3.70;;
76115;SDS011;64847;45.778;12.802;2023-02-28T04:19:36;3.30;;;3.10;;
76115;SDS011;64847;45.778;12.802;2023-02-28T04:22:02;3.93;;;3.63;;
76115;SDS011;64847;45.778;12.802;2023-02-28T04:24:27;3.87;;;3.57;;
76115;SDS011;64847;45.778;12.802;2023-02-28T04:26:54;3.93;;;3.63;;
76115;SDS011;64847;45.778;12.802;2023-02-28T04:29:27;4.10;;;3.60;;
76115;SDS011;64847;45.778;12.802;2023-02-28T04:32:00;4.73;;;3.83;;
76115;SDS011;64847;45.778;12.802;2023-02-28T04:34:26;3.80;;;3.47;;
76115;SDS011;64847;45.778;12.802;2023-02-28T04:36:52;3.77;;;3.47;;
76115;SDS011;64847;45.778;12.802;2023-02-28T04:39:20;4.37;;;3.97;;
76115;SDS011;64847;45.778;12.802;2023-02-28T04:41:46;3.10;;;2.90;;
76115;SDS011;64847;45.778;12.802;2023-02-28T04:44:11;3.80;;;3.50;;
76115;SDS011;64847;45.778;12.802;2023-02-28T04:46:37;4.30;;;3.90;;
76115;SDS011;64847;45.778;12.802;2023-02-28T04:49:02;4.50;;;4.10;;
76115;SDS011;64847;45.778;12.802;2023-02-28T04:51:28;4.43;;;4.00;;
76115;SDS011;64847;45.778;12.802;2023-02-28T04:53:53;4.43;;;4.03;;
76115;SDS011;64847;45.778;12.802;2023-02-28T04:56:19;4.53;;;3.97;;
76115;SDS011;64847;45.778;12.802;2023-02-28T04:58:45;4.63;;;4.07;;
76115;SDS011;64847;45.778;12.802;2023-02-28T05:04:03;4.70;;;4.20;;
76115;SDS011;64847;45.778;12.802;2023-02-28T05:06:29;4.40;;;4.03;;
76115;SDS011;64847;45.778;12.802;2023-02-28T05:08:57;5.07;;;4.13;;
76115;SDS011;64847;45.778;12.802;2023-02-28T05:11:24;4.10;;;3.70;;
76115;SDS011;64847;45.778;12.802;2023-02-28T05:13:51;4.83;;;4.20;;
76115;SDS011;64847;45.778;12.802;2023-02-28T05:16:17;4.30;;;3.90;;
76115;SDS011;64847;45.778;12.802;2023-02-28T05:18:43;4.50;;;4.10;;
76115;SDS011;64847;45.778;12.802;2023-02-28T05:21:22;5.37;;;4.40;;
76115;SDS011;64847;45.778;12.802;2023-02-28T05:23:50;5.17;;;4.33;;
76115;SDS011;64847;45.778;12.802;2023-02-28T05:26:16;4.40;;;4.00;;
76115;SDS011;64847;45.778;12.802;2023-02-28T05:28:41;4.87;;;4.33;;
76115;SDS011;64847;45.778;12.802;2023-02-28T05:31:07;4.23;;;3.83;;
76115;SDS011;64847;45.778;12.802;2023-02-28T05:33:35;4.30;;;3.93;;
76115;SDS011;64847;45.778;12.802;2023-02-28T05:36:01;4.47;;;4.07;;
76115;SDS011;64847;45.778;12.802;2023-02-28T05:38:26;5.03;;;4.53;;
76115;SDS011;64847;45.778;12.802;2023-02-28T05:40:54;4.90;;;4.40;;
76115;SDS011;64847;45.778;12.802;2023-02-28T05:43:19;4.50;;;4.10;;
76115;SDS011;64847;45.778;12.802;2023-02-28T05:45:44;4.50;;;4.10;;
76115;SDS011;64847;45.778;12.802;2023-02-28T05:48:10;5.03;;;4.53;;
76115;SDS011;64847;45.778;12.802;2023-02-28T05:50:35;4.43;;;4.03;;
76115;SDS011;64847;45.778;12.802;2023-02-28T05:53:01;4.10;;;3.80;;
76115;SDS011;64847;45.778;12.802;2023-02-28T05:55:26;4.77;;;4.23;;
76115;SDS011;64847;45.778;12.802;2023-02-28T05:57:52;6.33;;;4.43;;
76115;SDS011;64847;45.778;12.802;2023-02-28T06:00:17;5.63;;;4.60;;
76115;SDS011;64847;45.778;12.802;2023-02-28T06:02:43;4.73;;;4.33;;
76115;SDS011;64847;45.778;12.802;2023-02-28T06:05:12;5.13;;;4.57;;
76115;SDS011;64847;45.778;12.802;2023-02-28T06:07:39;5.70;;;5.20;;
76115;SDS011;64847;45.778;12.802;2023-02-28T06:10:04;6.20;;;5.20;;
76115;SDS011;64847;45.778;12.802;2023-02-28T06:12:30;5.43;;;4.80;;
76115;SDS011;64847;45.778;12.802;2023-02-28T06:14:55;5.73;;;5.07;;
76115;SDS011;64847;45.778;12.802;2023-02-28T06:17:21;6.37;;;4.90;;
76115;SDS011;64847;45.778;12.802;2023-02-28T06:19:46;6.03;;;5.30;;
76115;SDS011;64847;45.778;12.802;2023-02-28T06:22:13;9.10;;;5.37;;
76115;SDS011;64847;45.778;12.802;2023-02-28T06:24:38;5.47;;;4.90;;
76115;SDS011;64847;45.778;12.802;2023-02-28T06:27:04;5.73;;;5.10;;
76115;SDS011;64847;45.778;12.802;2023-02-28T06:29:33;5.60;;;4.97;;
76115;SDS011;64847;45.778;12.802;2023-02-28T06:31:59;5.73;;;5.10;;
76115;SDS011;64847;45.778;12.802;2023-02-28T06:34:25;5.07;;;4.57;;
76115;SDS011;64847;45.778;12.802;2023-02-28T06:36:50;5.10;;;4.60;;
76115;SDS011;64847;45.778;12.802;2023-02-28T06:39:17;4.80;;;4.40;;
76115;SDS011;64847;45.778;12.802;2023-02-28T06:41:42;5.30;;;4.60;;
76115;SDS011;64847;45.778;12.802;2023-02-28T06:44:17;5.60;;;4.50;;
76115;SDS011;64847;45.778;12.802;2023-02-28T06:47:00;6.17;;;4.40;;
76115;SDS011;64847;45.778;12.802;2023-02-28T06:49:28;5.80;;;4.90;;
76115;SDS011;64847;45.778;12.802;2023-02-28T06:51:54;5.37;;;4.87;;
76115;SDS011;64847;45.778;12.802;2023-02-28T06:54:19;5.23;;;4.73;;
76115;SDS011;64847;45.778;12.802;2023-02-28T06:56:45;5.50;;;4.90;;
76115;SDS011;64847;45.778;12.802;2023-02-28T06:59:10;5.23;;;4.73;;
76115;SDS011;64847;45.778;12.802;2023-02-28T07:01:35;6.13;;;4.80;;
76115;SDS011;64847;45.778;12.802;2023-02-28T07:04:01;5.80;;;5.13;;
76115;SDS011;64847;45.778;12.802;2023-02-28T07:06:27;4.80;;;4.40;;
76115;SDS011;64847;45.778;12.802;2023-02-28T07:08:52;4.63;;;4.27;;
76115;SDS011;64847;45.778;12.802;2023-02-28T07:11:19;5.87;;;5.10;;
76115;SDS011;64847;45.778;12.802;2023-02-28T07:13:50;5.07;;;4.67;;
76115;SDS011;64847;45.778;12.802;2023-02-28T07:16:16;5.53;;;5.03;;
76115;SDS011;64847;45.778;12.802;2023-02-28T07:18:41;5.40;;;4.90;;
76115;SDS011;64847;45.778;12.802;2023-02-28T07:21:08;5.17;;;4.77;;
76115;SDS011;64847;45.778;12.802;2023-02-28T07:23:35;5.43;;;4.80;;
76115;SDS011;64847;45.778;12.802;2023-02-28T07:26:00;5.40;;;4.90;;
76115;SDS011;64847;45.778;12.802;2023-02-28T07:28:26;5.13;;;4.63;;
76115;SDS011;64847;45.778;12.802;2023-02-28T07:30:52;4.73;;;4.27;;
76115;SDS011;64847;45.778;12.802;2023-02-28T07:33:18;5.53;;;5.10;;
76115;SDS011;64847;45.778;12.802;2023-02-28T07:35:43;5.53;;;5.10;;
76115;SDS011;64847;45.778;12.802;2023-02-28T07:38:11;4.87;;;4.43;;
76115;SDS011;64847;45.778;12.802;2023-02-28T07:40:38;5.07;;;4.67;;
76115;SDS011;64847;45.778;12.802;2023-02-28T07:43:04;4.90;;;4.40;;
76115;SDS011;64847;45.778;12.802;2023-02-28T07:45:29;5.00;;;4.50;;
76115;SDS011;64847;45.778;12.802;2023-02-28T07:47:56;4.87;;;4.37;;
76115;SDS011;64847;45.778;12.802;2023-02-28T07:50:22;4.73;;;4.40;;
76115;SDS011;64847;45.778;12.802;2023-02-28T07:52:47;4.77;;;4.30;;
76115;SDS011;64847;45.778;12.802;2023-02-28T07:55:13;4.60;;;4.20;;
76115;SDS011;64847;45.778;12.802;2023-02-28T07:57:39;5.30;;;4.80;;
76115;SDS011;64847;45.778;12.802;2023-02-28T08:00:06;5.77;;;4.93;;
76115;SDS011;64847;45.778;12.802;2023-02-28T08:02:34;4.50;;;4.10;;
76115;SDS011;64847;45.778;12.802;2023-02-28T08:05:00;4.93;;;4.40;;
76115;SDS011;64847;45.778;12.802;2023-02-28T08:07:25;4.20;;;3.90;;
76115;SDS011;64847;45.778;12.802;2023-02-28T08:09:51;4.77;;;4.30;;
76115;SDS011;64847;45.778;12.802;2023-02-28T08:12:17;4.77;;;4.37;;
76115;SDS011;64847;45.778;12.802;2023-02-28T08:14:44;5.00;;;4.50;;
76115;SDS011;64847;45.778;12.802;2023-02-28T08:17:10;4.73;;;4.33;;
76115;SDS011;64847;45.778;12.802;2023-02-28T08:19:35;4.90;;;4.50;;
76115;SDS011;64847;45.778;12.802;2023-02-28T08:22:01;4.35;;;4.00;;
76115;SDS011;64847;45.778;12.802;2023-02-28T08:24:26;4.63;;;4.30;;
76115;SDS011;64847;45.778;12.802;2023-02-28T08:26:51;5.05;;;4.65;;
76115;SDS011;64847;45.778;12.802;2023-02-28T08:29:17;4.63;;;4.20;;
76115;SDS011;64847;45.778;12.802;2023-02-28T08:31:42;4.68;;;4.22;;
76115;SDS011;64847;45.778;12.802;2023-02-28T08:34:08;4.60;;;4.20;;
76115;SDS011;64847;45.778;12.802;2023-02-28T08:36:35;4.13;;;3.83;;
76115;SDS011;64847;45.778;12.802;2023-02-28T08:39:01;4.28;;;3.90;;
76115;SDS011;64847;45.778;12.802;2023-02-28T08:41:27;4.50;;;4.10;;
76115;SDS011;64847;45.778;12.802;2023-02-28T08:43:53;4.28;;;3.97;;
76115;SDS011;64847;45.778;12.802;2023-02-28T08:46:18;4.97;;;4.57;;
76115;SDS011;64847;45.778;12.802;2023-02-28T08:48:44;4.82;;;4.43;;
76115;SDS011;64847;45.778;12.802;2023-02-28T08:51:12;3.88;;;3.67;;
76115;SDS011;64847;45.778;12.802;2023-02-28T08:53:41;4.80;;;4.40;;
76115;SDS011;64847;45.778;12.802;2023-02-28T08:56:08;4.20;;;3.90;;
76115;SDS011;64847;45.778;12.802;2023-02-28T08:58:36;4.15;;;3.85;;
76115;SDS011;64847;45.778;12.802;2023-02-28T09:01:13;4.57;;;4.18;;
76115;SDS011;64847;45.778;12.802;2023-02-28T09:03:42;4.15;;;3.72;;
76115;SDS011;64847;45.778;12.802;2023-02-28T09:06:09;4.45;;;4.05;;
76115;SDS011;64847;45.778;12.802;2023-02-28T09:08:35;4.32;;;3.92;;
76115;SDS011;64847;45.778;12.802;2023-02-28T09:11:01;4.63;;;4.22;;
76115;SDS011;64847;45.778;12.802;2023-02-28T09:13:28;4.57;;;4.18;;
76115;SDS011;64847;45.778;12.802;2023-02-28T09:15:54;5.50;;;4.90;;
76115;SDS011;64847;45.778;12.802;2023-02-28T09:18:21;4.78;;;4.47;;
76115;SDS011;64847;45.778;12.802;2023-02-28T09:20:46;4.72;;;4.43;;
76115;SDS011;64847;45.778;12.802;2023-02-28T09:23:12;5.18;;;4.78;;
76115;SDS011;64847;45.778;12.802;2023-02-28T09:25:38;5.18;;;4.68;;
76115;SDS011;64847;45.778;12.802;2023-02-28T09:28:10;4.55;;;4.25;;
76115;SDS011;64847;45.778;12.802;2023-02-28T09:30:36;5.10;;;4.70;;
76115;SDS011;64847;45.778;12.802;2023-02-28T09:33:01;4.45;;;4.05;;
76115;SDS011;64847;45.778;12.802;2023-02-28T09:35:27;4.63;;;4.22;;
76115;SDS011;64847;45.778;12.802;2023-02-28T09:37:52;6.47;;;3.95;;
76115;SDS011;64847;45.778;12.802;2023-02-28T09:40:19;3.70;;;3.40;;
76115;SDS011;64847;45.778;12.802;2023-02-28T09:42:46;3.53;;;3.22;;
76115;SDS011;64847;45.778;12.802;2023-02-28T09:45:21;3.47;;;3.20;;
76115;SDS011;64847;45.778;12.802;2023-02-28T09:47:47;3.60;;;3.30;;
76115;SDS011;64847;45.778;12.802;2023-02-28T09:52:51;3.08;;;2.88;;
76115;SDS011;64847;45.778;12.802;2023-02-28T09:55:34;4.57;;;3.60;;
76115;SDS011;64847;45.778;12.802;2023-02-28T09:58:05;4.95;;;3.97;;
76115;SDS011;64847;45.778;12.802;2023-02-28T10:00:36;4.22;;;3.90;;
76115;SDS011;64847;45.778;12.802;2023-02-28T10:08:11;4.40;;;3.95;;
76115;SDS011;64847;45.778;12.802;2023-02-28T10:10:40;4.53;;;3.78;;
76115;SDS011;64847;45.778;12.802;2023-02-28T10:16:26;4.18;;;3.85;;
76115;SDS011;64847;45.778;12.802;2023-02-28T10:19:03;4.75;;;4.35;;
76115;SDS011;64847;45.778;12.802;2023-02-28T10:21:42;4.78;;;4.43;;
76115;SDS011;64847;45.778;12.802;2023-02-28T10:24:19;4.60;;;4.05;;
76115;SDS011;64847;45.778;12.802;2023-02-28T10:26:46;4.43;;;4.13;;
76115;SDS011;64847;45.778;12.802;2023-02-28T10:29:13;4.70;;;4.35;;
76115;SDS011;64847;45.778;12.802;2023-02-28T10:31:38;4.72;;;4.32;;
76115;SDS011;64847;45.778;12.802;2023-02-28T10:34:04;3.97;;;3.78;;
76115;SDS011;64847;45.778;12.802;2023-02-28T10:36:31;4.53;;;4.15;;
76115;SDS011;64847;45.778;12.802;2023-02-28T10:38:57;4.10;;;3.90;;
76115;SDS011;64847;45.778;12.802;2023-02-28T10:41:29;4.10;;;3.80;;
76115;SDS011;64847;45.778;12.802;2023-02-28T10:44:21;4.68;;;4.30;;
76115;SDS011;64847;45.778;12.802;2023-02-28T10:46:48;3.80;;;3.35;;
76115;SDS011;64847;45.778;12.802;2023-02-28T10:49:17;3.30;;;3.10;;
76115;SDS011;64847;45.778;12.802;2023-02-28T10:51:42;3.13;;;2.92;;
76115;SDS011;64847;45.778;12.802;2023-02-28T10:54:15;3.03;;;2.80;;
76115;SDS011;64847;45.778;12.802;2023-02-28T10:56:42;3.28;;;3.05;;
76115;SDS011;64847;45.778;12.802;2023-02-28T11:04:16;4.28;;;3.97;;
76115;SDS011;64847;45.778;12.802;2023-02-28T11:06:58;3.50;;;3.30;;
76115;SDS011;64847;45.778;12.802;2023-02-28T11:09:27;4.28;;;3.88;;
76115;SDS011;64847;45.778;12.802;2023-02-28T11:11:55;3.95;;;3.65;;
76115;SDS011;64847;45.778;12.802;2023-02-28T11:14:24;4.07;;;3.83;;
76115;SDS011;64847;45.778;12.802;2023-02-28T11:16:51;4.05;;;3.75;;
76115;SDS011;64847;45.778;12.802;2023-02-28T11:19:25;4.28;;;3.97;;
76115;SDS011;64847;45.778;12.802;2023-02-28T11:21:59;4.03;;;3.78;;
76115;SDS011;64847;45.778;12.802;2023-02-28T11:26:55;4.28;;;3.97;;
76115;SDS011;64847;45.778;12.802;2023-02-28T11:29:22;4.10;;;3.80;;
76115;SDS011;64847;45.778;12.802;2023-02-28T11:32:02;4.60;;;4.30;;
76115;SDS011;64847;45.778;12.802;2023-02-28T11:34:30;3.90;;;3.70;;
76115;SDS011;64847;45.778;12.802;2023-02-28T11:36:57;5.00;;;4.15;;
76115;SDS011;64847;45.778;12.802;2023-02-28T11:39:25;4.10;;;3.80;;
76115;SDS011;64847;45.778;12.802;2023-02-28T11:47:12;4.25;;;3.95;;
76115;SDS011;64847;45.778;12.802;2023-02-28T11:52:39;4.53;;;4.22;;
76115;SDS011;64847;45.778;12.802;2023-02-28T11:55:19;4.38;;;4.07;;
76115;SDS011;64847;45.778;12.802;2023-02-28T12:06:36;3.85;;;3.63;;
76115;SDS011;64847;45.778;12.802;2023-02-28T12:25:47;3.78;;;3.58;;
76115;SDS011;64847;45.778;12.802;2023-02-28T12:28:17;4.05;;;3.83;;
76115;SDS011;64847;45.778;12.802;2023-02-28T12:30:56;4.40;;;4.10;;
76115;SDS011;64847;45.778;12.802;2023-02-28T12:33:24;4.00;;;3.65;;
76115;SDS011;64847;45.778;12.802;2023-02-28T12:35:54;4.07;;;3.78;;
76115;SDS011;64847;45.778;12.802;2023-02-28T12:38:22;4.32;;;4.03;;
76115;SDS011;64847;45.778;12.802;2023-02-28T12:40:50;4.40;;;3.85;;
76115;SDS011;64847;45.778;12.802;2023-02-28T12:43:19;3.88;;;3.63;;
76115;SDS011;64847;45.778;12.802;2023-02-28T12:45:47;4.00;;;3.80;;
76115;SDS011;64847;45.778;12.802;2023-02-28T12:48:20;3.80;;;3.53;;
76115;SDS011;64847;45.778;12.802;2023-02-28T12:50:49;4.53;;;4.13;;
76115;SDS011;64847;45.778;12.802;2023-02-28T12:53:25;4.32;;;3.92;;
76115;SDS011;64847;45.778;12.802;2023-02-28T12:55:59;4.45;;;3.53;;
76115;SDS011;64847;45.778;12.802;2023-02-28T12:58:28;3.95;;;3.65;;
76115;SDS011;64847;45.778;12.802;2023-02-28T13:09:22;4.45;;;4.10;;
76115;SDS011;64847;45.778;12.802;2023-02-28T13:11:48;4.65;;;4.25;;
76115;SDS011;64847;45.778;12.802;2023-02-28T13:14:18;3.92;;;3.63;;
76115;SDS011;64847;45.778;12.802;2023-02-28T13:19:41;4.40;;;4.10;;
76115;SDS011;64847;45.778;12.802;2023-02-28T13:22:18;4.78;;;4.38;;
76115;SDS011;64847;45.778;12.802;2023-02-28T13:24:50;4.40;;;4.00;;
76115;SDS011;64847;45.778;12.802;2023-02-28T13:36:06;4.22;;;3.92;;
76115;SDS011;64847;45.778;12.802;2023-02-28T14:02:47;5.25;;;3.80;;
76115;SDS011;64847;45.778;12.802;2023-02-28T14:05:34;6.00;;;4.03;;
76115;SDS011;64847;45.778;12.802;2023-02-28T14:08:21;3.90;;;3.50;;
76115;SDS011;64847;45.778;12.802;2023-02-28T14:10:48;4.55;;;3.67;;
76115;SDS011;64847;45.778;12.802;2023-02-28T14:16:10;3.88;;;3.58;;
76115;SDS011;64847;45.778;12.802;2023-02-28T14:18:40;5.72;;;5.25;;
76115;SDS011;64847;45.778;12.802;2023-02-28T14:23:56;6.13;;;4.90;;
76115;SDS011;64847;45.778;12.802;2023-02-28T14:29:29;6.30;;;5.70;;
76115;SDS011;64847;45.778;12.802;2023-02-28T14:32:02;5.83;;;5.23;;
76115;SDS011;64847;45.778;12.802;2023-02-28T14:37:33;6.07;;;5.00;;
76115;SDS011;64847;45.778;12.802;2023-02-28T14:40:02;6.73;;;6.03;;
76115;SDS011;64847;45.778;12.802;2023-02-28T14:45:03;6.87;;;5.87;;
76115;SDS011;64847;45.778;12.802;2023-02-28T14:47:33;6.77;;;6.00;;
76115;SDS011;64847;45.778;12.802;2023-02-28T14:49:59;6.53;;;5.93;;
76115;SDS011;64847;45.778;12.802;2023-02-28T14:52:27;6.80;;;6.10;;
76115;SDS011;64847;45.778;12.802;2023-02-28T14:55:04;6.83;;;6.13;;
76115;SDS011;64847;45.778;12.802;2023-02-28T14:57:33;5.73;;;5.23;;
76115;SDS011;64847;45.778;12.802;2023-02-28T15:02:49;6.60;;;6.00;;
76115;SDS011;64847;45.778;12.802;2023-02-28T15:07:41;6.80;;;6.10;;
76115;SDS011;64847;45.778;12.802;2023-02-28T15:10:13;9.23;;;6.23;;
76115;SDS011;64847;45.778;12.802;2023-02-28T15:12:45;6.67;;;6.07;;
76115;SDS011;64847;45.778;12.802;2023-02-28T15:15:16;6.27;;;5.70;;
76115;SDS011;64847;45.778;12.802;2023-02-28T15:17:43;6.50;;;5.90;;
76115;SDS011;64847;45.778;12.802;2023-02-28T15:20:11;7.23;;;6.53;;
76115;SDS011;64847;45.778;12.802;2023-02-28T15:22:38;6.97;;;6.30;;
76115;SDS011;64847;45.778;12.802;2023-02-28T15:25:04;6.17;;;5.67;;
76115;SDS011;64847;45.778;12.802;2023-02-28T15:27:31;5.73;;;5.23;;
76115;SDS011;64847;45.778;12.802;2023-02-28T15:30:00;9.43;;;6.23;;
76115;SDS011;64847;45.778;12.802;2023-02-28T15:32:34;7.07;;;6.30;;
76115;SDS011;64847;45.778;12.802;2023-02-28T15:37:53;6.83;;;6.33;;
76115;SDS011;64847;45.778;12.802;2023-02-28T15:40:24;6.83;;;6.03;;
76115;SDS011;64847;45.778;12.802;2023-02-28T15:45:50;7.50;;;5.90;;
76115;SDS011;64847;45.778;12.802;2023-02-28T15:48:24;6.70;;;6.10;;
76115;SDS011;64847;45.778;12.802;2023-02-28T15:50:55;6.57;;;5.97;;
76115;SDS011;64847;45.778;12.802;2023-02-28T15:53:30;6.33;;;5.73;;
76115;SDS011;64847;45.778;12.802;2023-02-28T15:56:00;5.60;;;5.10;;
76115;SDS011;64847;45.778;12.802;2023-02-28T15:58:27;5.97;;;5.47;;
76115;SDS011;64847;45.778;12.802;2023-02-28T16:01:06;7.00;;;5.70;;
76115;SDS011;64847;45.778;12.802;2023-02-28T16:03:46;5.70;;;5.20;;
76115;SDS011;64847;45.778;12.802;2023-02-28T16:08:51;8.67;;;6.63;;
76115;SDS011;64847;45.778;12.802;2023-02-28T16:11:18;5.90;;;5.40;;
76115;SDS011;64847;45.778;12.802;2023-02-28T16:13:45;6.17;;;5.67;;
76115;SDS011;64847;45.778;12.802;2023-02-28T16:16:14;6.27;;;5.77;;
76115;SDS011;64847;45.778;12.802;2023-02-28T16:18:41;7.20;;;5.60;;
76115;SDS011;64847;45.778;12.802;2023-02-28T16:21:08;5.80;;;5.30;;
76115;SDS011;64847;45.778;12.802;2023-02-28T16:23:33;5.47;;;4.97;;
76115;SDS011;64847;45.778;12.802;2023-02-28T16:25:59;5.47;;;5.00;;
76115;SDS011;64847;45.778;12.802;2023-02-28T16:28:25;6.17;;;5.63;;
76115;SDS011;64847;45.778;12.802;2023-02-28T16:30:57;5.73;;;5.23;;
76115;SDS011;64847;45.778;12.802;2023-02-28T16:33:24;5.57;;;5.07;;
76115;SDS011;64847;45.778;12.802;2023-02-28T16:35:50;6.20;;;5.60;;
76115;SDS011;64847;45.778;12.802;2023-02-28T16:38:15;5.70;;;5.20;;
76115;SDS011;64847;45.778;12.802;2023-02-28T16:40:41;5.77;;;5.23;;
76115;SDS011;64847;45.778;12.802;2023-02-28T16:43:12;6.30;;;5.30;;
76115;SDS011;64847;45.778;12.802;2023-02-28T16:45:40;6.10;;;5.43;;
76115;SDS011;64847;45.778;12.802;2023-02-28T16:48:07;5.90;;;5.40;;
76115;SDS011;64847;45.778;12.802;2023-02-28T16:50:36;6.07;;;5.57;;
76115;SDS011;64847;45.778;12.802;2023-02-28T16:53:01;6.57;;;5.27;;
76115;SDS011;64847;45.778;12.802;2023-02-28T16:55:27;5.97;;;5.37;;
76115;SDS011;64847;45.778;12.802;2023-02-28T16:57:54;5.87;;;5.30;;
76115;SDS011;64847;45.778;12.802;2023-02-28T17:00:21;5.77;;;5.27;;
76115;SDS011;64847;45.778;12.802;2023-02-28T17:02:47;6.00;;;5.33;;
76115;SDS011;64847;45.778;12.802;2023-02-28T17:05:13;6.03;;;5.50;;
76115;SDS011;64847;45.778;12.802;2023-02-28T17:07:40;6.10;;;5.60;;
76115;SDS011;64847;45.778;12.802;2023-02-28T17:12:42;5.30;;;4.90;;
76115;SDS011;64847;45.778;12.802;2023-02-28T17:15:08;5.90;;;5.40;;
76115;SDS011;64847;45.778;12.802;2023-02-28T17:17:35;5.50;;;5.10;;
76115;SDS011;64847;45.778;12.802;2023-02-28T17:20:00;5.13;;;4.70;;